Missoula, MT (59801)

8:44 PM MDT on August 24, 2016 (GMT -0600)
Franklin to the Fort | | Change Station

Elev 3200 ft 46.86 °N, 114.02 °W | Updated 5 seconds ago

Clear
Clear
60.0 °F
Feels Like 60.0 °F
N
0.0
Wind Variable Wind from NE
Gusts 0.0 mph

Today
High -- | Low -- °F
--% Chance of Precip.
Yesterday
High -- | Low -- °F
Precip. -- in
Pressure 30.25 in
Visibility 10.0 miles
Clouds Clear
Dew Point 50 °F
Humidity 70%
Rainfall 0.05 in
Snow Depth Not available.
6:46 AM 8:29 PM
Waning Gibbous, 50% visible
METAR KMSO 250153Z 00000KT 10SM CLR 18/08 A3026 RMK AO2 SLP243 T01830083
Pressure 30.25 in
Visibility 10.0 miles
Clouds Clear
Dew Point 50 °F
Humidity 70%
Rainfall 0.05 in
Snow Depth Not available.
6:46 AM 8:29 PM
Waning Gibbous, 50% visible
METAR KMSO 250153Z 00000KT 10SM CLR 18/08 A3026 RMK AO2 SLP243 T01830083

10-Day Weather Forecast

Almanac

Astronomy

Aug. 24, 2016 Rise Set
Actual Time
Civil Twilight
Nautical Twilight
Astronomical Twilight
Moon
Length of Visible Light
Length of Day
Tomorrow will be .
, % of the Moon is Illuminated

Today's Extremes

State Highs State Lows

Community

WunderPhotos

Upload Photos

1,934,779 photos uploaded!

WunderBlog® & News

Nearby

Air Quality

  Air Quality AQ Index Pollutant
Not available.

Snow Depth

Station Depth Elevation

Earthquake Activity

City Distance Mag. Time & Date
Minimum magnitude displayed is 2.5.

Coastal Water Temperatures

Place Temperature

Stations

Nearby Weather Stations

Station Location Temp. Windchill Dew Point Humidity Wind Precip. Elev Updated Type
                   

Watches & Warnings

There are currently no watches in effect.